Time;durP1;ratioP1;P1;durP2;ratioP2;P2;SDS_P1;SDS_P2;PMS_P1;PMS_P2;Temp;Humidity;BMP_temperature;BMP_pressure;BME280_temperature;BME280_humidity;BME280_pressure;Samples;Min_cycle;Max_cycle;Signal;HPM_P1;HPM_P2
2023/03/13 00:01:01;;;;;;;13.25;1.80;;;;;;;;;;5261248;28;20024;-69
2023/03/13 00:03:32;;;;;;;12.60;1.45;;;;;;;;;;5260966;28;20025;-70
2023/03/13 00:06:03;;;;;;;13.68;1.52;;;;;;;;;;5260766;28;20025;-70
2023/03/13 00:08:35;;;;;;;13.98;1.85;;;;;;;;;;5260892;28;20104;-70
2023/03/13 00:11:06;;;;;;;14.90;2.22;;;;;;;;;;5261281;28;20032;-70
2023/03/13 00:13:38;;;;;;;16.40;2.63;;;;;;;;;;5259870;28;20063;-70
2023/03/13 00:16:10;;;;;;;16.83;2.22;;;;;;;;;;5261395;28;20021;-70
2023/03/13 00:18:45;;;;;;;17.02;2.28;;;;;;;;;;5260037;28;20021;-70
2023/03/13 00:21:18;;;;;;;9.80;1.83;;;;;;;;;;5261403;28;20017;-70
2023/03/13 00:23:49;;;;;;;14.23;2.35;;;;;;;;;;5260570;28;20074;-70
2023/03/13 00:26:22;;;;;;;15.20;2.35;;;;;;;;;;5260041;28;20009;-70
2023/03/13 00:28:53;;;;;;;11.52;1.80;;;;;;;;;;5260988;28;20017;-70
2023/03/13 00:31:26;;;;;;;12.57;2.20;;;;;;;;;;5260641;28;20071;-70
2023/03/13 00:33:58;;;;;;;16.00;2.80;;;;;;;;;;5260153;28;20021;-70
2023/03/13 00:36:30;;;;;;;16.30;2.35;;;;;;;;;;5260353;28;20425;-70
2023/03/13 00:39:02;;;;;;;15.95;2.15;;;;;;;;;;5261232;28;20032;-70
2023/03/13 00:41:35;;;;;;;18.13;3.10;;;;;;;;;;5262650;28;20014;-70
2023/03/13 00:44:07;;;;;;;15.50;3.17;;;;;;;;;;5265106;28;20029;-70
2023/03/13 00:46:38;;;;;;;21.65;1.95;;;;;;;;;;5263776;28;20013;-69
2023/03/13 00:49:09;;;;;;;12.25;1.60;;;;;;;;;;5264914;28;20021;-69
2023/03/13 00:51:41;;;;;;;16.94;2.14;;;;;;;;;;5264089;28;20060;-69
2023/03/13 00:54:12;;;;;;;14.18;1.75;;;;;;;;;;5264408;28;20021;-69
2023/03/13 00:56:43;;;;;;;13.82;1.85;;;;;;;;;;5264351;28;20399;-69
2023/03/13 00:59:14;;;;;;;15.90;2.60;;;;;;;;;;5265011;28;20078;-69
2023/03/13 01:01:46;;;;;;;15.32;2.78;;;;;;;;;;5263323;28;20048;-69
2023/03/13 01:04:18;;;;;;;12.45;2.17;;;;;;;;;;5265125;28;20021;-69
2023/03/13 01:06:49;;;;;;;12.95;2.17;;;;;;;;;;5264086;28;20032;-69
2023/03/13 01:09:20;;;;;;;10.90;1.50;;;;;;;;;;5264035;28;20037;-69
2023/03/13 01:11:51;;;;;;;8.02;1.73;;;;;;;;;;5264091;28;20032;-69
2023/03/13 01:14:22;;;;;;;15.90;2.20;;;;;;;;;;5264120;28;20028;-69
2023/03/13 01:16:53;;;;;;;11.90;1.70;;;;;;;;;;5263295;28;20029;-69
2023/03/13 01:19:25;;;;;;;12.68;1.92;;;;;;;;;;5263722;28;20466;-69
2023/03/13 01:21:56;;;;;;;8.20;1.58;;;;;;;;;;5263547;28;20472;-68
2023/03/13 01:24:27;;;;;;;11.13;1.52;;;;;;;;;;5263635;28;20032;-69
2023/03/13 01:26:58;;;;;;;11.63;2.15;;;;;;;;;;5264545;28;20063;-68
2023/03/13 01:29:29;;;;;;;10.52;1.90;;;;;;;;;;5262830;28;20029;-68
2023/03/13 01:32:00;;;;;;;10.35;1.33;;;;;;;;;;5264121;28;20112;-67
2023/03/13 01:34:32;;;;;;;11.52;2.03;;;;;;;;;;5263418;28;20286;-68
2023/03/13 01:37:03;;;;;;;5.28;1.02;;;;;;;;;;5263226;28;20032;-67
2023/03/13 01:39:34;;;;;;;11.25;1.83;;;;;;;;;;5263690;28;20017;-68
2023/03/13 01:42:05;;;;;;;9.70;1.80;;;;;;;;;;5264167;28;20060;-68
2023/03/13 01:44:50;;;;;;;9.00;1.25;;;;;;;;;;5262735;28;20074;-68
2023/03/13 01:47:22;;;;;;;8.25;1.20;;;;;;;;;;5263331;28;20357;-69
2023/03/13 01:49:53;;;;;;;7.82;1.30;;;;;;;;;;5262684;28;20116;-69
2023/03/13 01:52:26;;;;;;;9.45;1.30;;;;;;;;;;5262242;28;20029;-68
2023/03/13 01:55:04;;;;;;;7.22;1.13;;;;;;;;;;5263790;28;20420;-69
2023/03/13 01:57:39;;;;;;;7.30;1.35;;;;;;;;;;5262170;28;20534;-69
2023/03/13 02:00:16;;;;;;;5.13;0.70;;;;;;;;;;5263911;28;20073;-69
2023/03/13 02:02:50;;;;;;;8.82;0.95;;;;;;;;;;5262994;28;20017;-69
2023/03/13 02:05:24;;;;;;;8.77;1.13;;;;;;;;;;5262573;28;20016;-69
2023/03/13 02:07:58;;;;;;;5.95;0.88;;;;;;;;;;5263305;28;20017;-69
2023/03/13 02:10:30;;;;;;;4.70;0.98;;;;;;;;;;5262799;28;20096;-70
2023/03/13 02:13:02;;;;;;;5.75;1.00;;;;;;;;;;5262607;28;20036;-69
2023/03/13 02:15:33;;;;;;;3.83;0.80;;;;;;;;;;5263084;28;20017;-70
2023/03/13 02:18:04;;;;;;;6.40;1.00;;;;;;;;;;5262397;28;20020;-70
2023/03/13 02:20:37;;;;;;;5.68;1.17;;;;;;;;;;5262752;28;20474;-70
2023/03/13 02:23:37;;;;;;;7.22;1.45;;;;;;;;;;5263628;28;20025;-70
2023/03/13 02:26:08;;;;;;;6.25;1.13;;;;;;;;;;5266000;28;20029;-70
2023/03/13 02:28:40;;;;;;;4.68;0.95;;;;;;;;;;5262564;28;20513;-70
2023/03/13 02:31:11;;;;;;;4.63;0.80;;;;;;;;;;5262806;28;20405;-70
2023/03/13 02:33:43;;;;;;;6.65;0.88;;;;;;;;;;5261577;28;20055;-68
2023/03/13 02:36:15;;;;;;;5.82;0.98;;;;;;;;;;5263021;28;20017;-70
2023/03/13 02:38:50;;;;;;;3.80;1.00;;;;;;;;;;5262332;28;20410;-70
2023/03/13 02:41:21;;;;;;;5.47;1.15;;;;;;;;;;5261650;28;20104;-69
2023/03/13 02:43:53;;;;;;;5.15;1.52;;;;;;;;;;5262507;28;20088;-70
2023/03/13 02:46:24;;;;;;;8.75;1.42;;;;;;;;;;5261348;28;20025;-70
2023/03/13 02:48:56;;;;;;;4.97;0.95;;;;;;;;;;5262873;28;20056;-70
2023/03/13 02:51:27;;;;;;;4.90;1.20;;;;;;;;;;5261939;28;20045;-70
2023/03/13 02:54:03;;;;;;;5.95;1.52;;;;;;;;;;5261687;28;20041;-69
2023/03/13 02:56:36;;;;;;;5.57;1.08;;;;;;;;;;5262117;28;20622;-69
2023/03/13 02:59:07;;;;;;;3.58;1.20;;;;;;;;;;5262637;28;20046;-69
2023/03/13 03:01:38;;;;;;;2.63;0.90;;;;;;;;;;5261102;28;20033;-70
2023/03/13 03:04:10;;;;;;;3.45;0.98;;;;;;;;;;5262244;28;20028;-69
2023/03/13 03:06:41;;;;;;;6.10;1.50;;;;;;;;;;5261732;28;20020;-69
2023/03/13 03:09:12;;;;;;;3.65;1.35;;;;;;;;;;5261683;28;20036;-69
2023/03/13 03:11:43;;;;;;;4.40;1.30;;;;;;;;;;5261508;28;20103;-70
2023/03/13 03:14:15;;;;;;;5.82;1.40;;;;;;;;;;5262047;28;20100;-71
2023/03/13 03:16:46;;;;;;;3.60;1.23;;;;;;;;;;5261146;28;20059;-70
2023/03/13 03:19:17;;;;;;;4.25;1.48;;;;;;;;;;5262062;28;20025;-69
2023/03/13 03:21:48;;;;;;;3.58;1.30;;;;;;;;;;5260847;28;20138;-70
2023/03/13 03:24:19;;;;;;;1.73;1.10;;;;;;;;;;5261866;28;20032;-69
2023/03/13 03:26:50;;;;;;;2.90;1.30;;;;;;;;;;5261728;28;20027;-69
2023/03/13 03:29:22;;;;;;;3.93;1.40;;;;;;;;;;5260843;28;20052;-69
2023/03/13 03:31:53;;;;;;;2.97;1.30;;;;;;;;;;5261539;28;20283;-69
2023/03/13 03:34:24;;;;;;;3.25;1.23;;;;;;;;;;5261040;28;20052;-69
2023/03/13 03:36:55;;;;;;;2.83;1.02;;;;;;;;;;5260963;28;20495;-69
2023/03/13 03:39:27;;;;;;;2.85;1.25;;;;;;;;;;5261238;28;20361;-69
2023/03/13 03:41:58;;;;;;;2.30;1.42;;;;;;;;;;5261665;28;20033;-69
2023/03/13 03:44:29;;;;;;;2.85;1.50;;;;;;;;;;5260500;28;20086;-69
2023/03/13 03:47:00;;;;;;;3.20;1.35;;;;;;;;;;5261631;28;20028;-69
2023/03/13 03:49:31;;;;;;;2.67;1.37;;;;;;;;;;5260109;28;20533;-69
2023/03/13 03:52:03;;;;;;;4.10;1.75;;;;;;;;;;5261298;28;20646;-70
2023/03/13 03:54:34;;;;;;;3.15;1.48;;;;;;;;;;5260770;28;20036;-69
2023/03/13 03:57:05;;;;;;;2.92;1.58;;;;;;;;;;5260883;28;20028;-69
2023/03/13 03:59:36;;;;;;;4.07;1.88;;;;;;;;;;5260819;28;20025;-69
2023/03/13 04:02:08;;;;;;;4.05;2.03;;;;;;;;;;5261467;28;20035;-69
2023/03/13 04:04:39;;;;;;;5.10;2.00;;;;;;;;;;5259940;28;20029;-69
2023/03/13 04:07:10;;;;;;;3.13;1.83;;;;;;;;;;5261563;28;20367;-70
2023/03/13 04:09:41;;;;;;;3.03;1.75;;;;;;;;;;5260823;28;20104;-70
2023/03/13 04:12:12;;;;;;;4.38;1.98;;;;;;;;;;5260747;28;20044;-70
2023/03/13 04:14:44;;;;;;;5.22;2.10;;;;;;;;;;5260201;28;20021;-70
2023/03/13 04:17:15;;;;;;;2.13;1.35;;;;;;;;;;5261207;28;20025;-70
2023/03/13 04:19:46;;;;;;;3.08;1.83;;;;;;;;;;5260061;28;20013;-70
2023/03/13 04:22:17;;;;;;;2.47;1.73;;;;;;;;;;5261503;28;20151;-70
2023/03/13 04:24:48;;;;;;;4.53;2.15;;;;;;;;;;5259857;28;20017;-70
2023/03/13 04:27:20;;;;;;;4.03;2.13;;;;;;;;;;5260881;28;20025;-70
2023/03/13 04:29:51;;;;;;;4.03;1.38;;;;;;;;;;5260755;28;20057;-70
2023/03/13 04:32:22;;;;;;;3.38;1.58;;;;;;;;;;5260146;28;20475;-70
2023/03/13 04:34:53;;;;;;;4.22;1.67;;;;;;;;;;5260791;28;20079;-70
2023/03/13 04:37:25;;;;;;;3.28;1.60;;;;;;;;;;5260502;28;20017;-71
2023/03/13 04:39:56;;;;;;;3.40;0.95;;;;;;;;;;5260267;28;20017;-70
2023/03/13 04:42:27;;;;;;;2.78;1.45;;;;;;;;;;5260474;28;20028;-70
2023/03/13 04:44:58;;;;;;;2.13;1.20;;;;;;;;;;5260926;28;20025;-70
2023/03/13 04:47:29;;;;;;;5.85;1.58;;;;;;;;;;5259521;28;20013;-70
2023/03/13 04:50:00;;;;;;;6.30;1.00;;;;;;;;;;5260918;28;20291;-70
2023/03/13 04:52:32;;;;;;;3.15;0.95;;;;;;;;;;5260372;28;20040;-70
2023/03/13 04:55:03;;;;;;;3.45;0.98;;;;;;;;;;5260000;28;20017;-70
2023/03/13 04:57:34;;;;;;;2.22;1.05;;;;;;;;;;5260538;28;20082;-70
2023/03/13 05:00:07;;;;;;;3.25;0.90;;;;;;;;;;5260256;28;20025;-70
2023/03/13 05:02:38;;;;;;;3.05;0.90;;;;;;;;;;5260332;28;20485;-70
2023/03/13 05:05:09;;;;;;;3.38;1.20;;;;;;;;;;5260670;28;20021;-70
2023/03/13 05:07:40;;;;;;;2.38;1.00;;;;;;;;;;5259525;28;20112;-70
2023/03/13 05:10:11;;;;;;;3.83;1.08;;;;;;;;;;5260961;28;20021;-71
2023/03/13 05:12:42;;;;;;;3.33;1.02;;;;;;;;;;5260212;28;20524;-71
2023/03/13 05:15:14;;;;;;;2.60;0.70;;;;;;;;;;5259859;28;20018;-70
2023/03/13 05:17:45;;;;;;;4.00;0.90;;;;;;;;;;5260036;28;20031;-71
2023/03/13 05:20:16;;;;;;;2.63;0.70;;;;;;;;;;5260821;28;20013;-70
2023/03/13 05:22:48;;;;;;;3.55;0.90;;;;;;;;;;5259098;28;20320;-70
2023/03/13 05:25:19;;;;;;;3.25;0.70;;;;;;;;;;5260364;28;20025;-71
2023/03/13 05:27:51;;;;;;;2.60;0.80;;;;;;;;;;5261788;28;20021;-71
2023/03/13 05:30:24;;;;;;;2.70;0.65;;;;;;;;;;5262958;28;20055;-71
2023/03/13 05:32:55;;;;;;;3.50;1.00;;;;;;;;;;5264182;28;20036;-71
2023/03/13 05:35:26;;;;;;;3.40;0.70;;;;;;;;;;5262835;28;20017;-71
2023/03/13 05:37:57;;;;;;;3.42;0.63;;;;;;;;;;5264663;28;20024;-71
2023/03/13 05:40:28;;;;;;;3.30;0.87;;;;;;;;;;5263386;28;20025;-72
2023/03/13 05:43:00;;;;;;;5.50;0.95;;;;;;;;;;5263262;28;20267;-70
2023/03/13 05:45:31;;;;;;;4.10;0.88;;;;;;;;;;5263205;28;20079;-70
2023/03/13 05:48:02;;;;;;;3.70;0.70;;;;;;;;;;5264246;28;20468;-71
2023/03/13 05:50:33;;;;;;;4.72;0.95;;;;;;;;;;5262423;28;20053;-70
2023/03/13 05:53:05;;;;;;;3.08;0.75;;;;;;;;;;5263796;28;20043;-70
2023/03/13 05:55:36;;;;;;;3.28;0.60;;;;;;;;;;5263588;28;20025;-70
2023/03/13 05:58:07;;;;;;;4.47;0.90;;;;;;;;;;5262859;28;20013;-70
2023/03/13 06:00:38;;;;;;;4.07;0.90;;;;;;;;;;5262997;28;20791;-70
2023/03/13 06:03:09;;;;;;;4.50;0.80;;;;;;;;;;5263314;28;20463;-71
2023/03/13 06:05:40;;;;;;;5.15;0.88;;;;;;;;;;5262987;28;20132;-71
2023/03/13 06:08:12;;;;;;;5.32;0.90;;;;;;;;;;5263727;28;20029;-70
2023/03/13 06:10:43;;;;;;;2.75;0.80;;;;;;;;;;5261886;28;20025;-71
2023/03/13 06:13:14;;;;;;;3.10;0.73;;;;;;;;;;5263077;28;20116;-71
2023/03/13 06:15:52;;;;;;;2.93;0.80;;;;;;;;;;5262595;28;20352;-72
2023/03/13 06:18:24;;;;;;;4.07;0.80;;;;;;;;;;5262127;28;20299;-71
2023/03/13 06:20:59;;;;;;;4.03;0.73;;;;;;;;;;5263161;28;20067;-70
2023/03/13 06:23:30;;;;;;;3.33;0.60;;;;;;;;;;5262319;28;20029;-71
2023/03/13 06:26:02;;;;;;;3.47;0.80;;;;;;;;;;5262140;28;20024;-70
2023/03/13 06:28:33;;;;;;;3.45;0.70;;;;;;;;;;5262072;28;20096;-71
2023/03/13 06:31:05;;;;;;;3.35;0.68;;;;;;;;;;5263000;28;20013;-70
2023/03/13 06:33:36;;;;;;;5.95;0.75;;;;;;;;;;5261583;28;20033;-70
2023/03/13 06:36:08;;;;;;;5.50;0.90;;;;;;;;;;5262955;28;20048;-70
2023/03/13 06:38:39;;;;;;;2.70;0.70;;;;;;;;;;5261038;28;20370;-71
2023/03/13 06:41:10;;;;;;;5.00;0.65;;;;;;;;;;5262687;28;20032;-71
2023/03/13 06:43:41;;;;;;;3.33;0.73;;;;;;;;;;5262139;28;20036;-70
2023/03/13 06:46:17;;;;;;;2.53;0.60;;;;;;;;;;5261737;28;20349;-71
2023/03/13 06:48:49;;;;;;;8.18;1.08;;;;;;;;;;5262177;28;20017;-71
2023/03/13 06:51:20;;;;;;;6.28;0.82;;;;;;;;;;5262038;28;20059;-71
2023/03/13 06:53:52;;;;;;;4.47;0.70;;;;;;;;;;5261292;28;20029;-70
2023/03/13 06:56:23;;;;;;;5.03;0.70;;;;;;;;;;5262205;28;20100;-71
2023/03/13 06:58:54;;;;;;;5.32;0.75;;;;;;;;;;5262401;28;20044;-72
2023/03/13 07:01:25;;;;;;;3.90;0.90;;;;;;;;;;5260837;28;20017;-70
2023/03/13 07:03:56;;;;;;;4.13;0.70;;;;;;;;;;5262143;28;20796;-70
2023/03/13 07:06:27;;;;;;;6.93;1.10;;;;;;;;;;5261235;28;20021;-70
2023/03/13 07:08:59;;;;;;;5.50;0.83;;;;;;;;;;5262418;28;20321;-71
2023/03/13 07:11:30;;;;;;;5.78;0.90;;;;;;;;;;5261276;28;20275;-70
2023/03/13 07:14:01;;;;;;;5.18;0.70;;;;;;;;;;5261373;28;20536;-70
2023/03/13 07:16:33;;;;;;;4.68;0.70;;;;;;;;;;5261210;28;20021;-72
2023/03/13 07:19:04;;;;;;;6.55;1.40;;;;;;;;;;5262174;28;20021;-71
2023/03/13 07:21:35;;;;;;;6.55;1.15;;;;;;;;;;5260862;28;20100;-71
2023/03/13 07:24:06;;;;;;;5.80;1.02;;;;;;;;;;5261937;28;20317;-71
2023/03/13 07:26:38;;;;;;;4.10;0.82;;;;;;;;;;5261158;28;20175;-70
2023/03/13 07:29:09;;;;;;;6.00;0.90;;;;;;;;;;5261111;28;20051;-70
2023/03/13 07:31:40;;;;;;;6.18;0.63;;;;;;;;;;5261116;28;20021;-70
2023/03/13 07:34:11;;;;;;;5.17;0.70;;;;;;;;;;5261911;28;20459;-71
2023/03/13 07:36:42;;;;;;;5.00;0.82;;;;;;;;;;5260518;28;20628;-71
2023/03/13 07:39:13;;;;;;;5.15;0.98;;;;;;;;;;5261606;28;20017;-72
2023/03/13 07:41:45;;;;;;;4.77;0.67;;;;;;;;;;5260590;28;20075;-73
2023/03/13 07:44:16;;;;;;;3.58;0.75;;;;;;;;;;5261827;28;20271;-71
2023/03/13 07:46:48;;;;;;;5.38;0.73;;;;;;;;;;5261222;28;20025;-71
2023/03/13 07:49:20;;;;;;;5.72;0.80;;;;;;;;;;5260052;28;20021;-71
2023/03/13 07:51:54;;;;;;;5.63;0.80;;;;;;;;;;5260930;28;20051;-71
2023/03/13 07:54:25;;;;;;;5.70;0.95;;;;;;;;;;5281801;28;20274;-72
2023/03/13 07:56:56;;;;;;;5.63;1.27;;;;;;;;;;5281652;28;20012;-71
2023/03/13 07:59:27;;;;;;;3.80;1.02;;;;;;;;;;5281479;28;20021;-73
2023/03/13 08:01:58;;;;;;;5.70;0.82;;;;;;;;;;5281960;28;20024;-71
2023/03/13 08:04:30;;;;;;;6.43;0.73;;;;;;;;;;5280705;28;20039;-71
2023/03/13 08:07:01;;;;;;;8.20;1.05;;;;;;;;;;5282092;28;20350;-72
2023/03/13 08:09:32;;;;;;;3.38;0.73;;;;;;;;;;5281498;28;20017;-72
2023/03/13 08:12:03;;;;;;;3.97;0.75;;;;;;;;;;5276714;28;20028;-71
2023/03/13 08:14:34;;;;;;;3.67;0.60;;;;;;;;;;5281093;28;20095;-70
2023/03/13 08:17:06;;;;;;;5.07;0.70;;;;;;;;;;5281041;28;20486;-70
2023/03/13 08:19:37;;;;;;;4.23;0.83;;;;;;;;;;5281015;28;20056;-71
2023/03/13 08:22:08;;;;;;;4.10;0.70;;;;;;;;;;5281191;28;20278;-71
2023/03/13 08:24:40;;;;;;;3.77;0.60;;;;;;;;;;5279240;28;20044;-71
2023/03/13 08:27:11;;;;;;;5.47;0.77;;;;;;;;;;5281385;28;20286;-72
2023/03/13 08:29:42;;;;;;;6.27;1.20;;;;;;;;;;5281395;28;20021;-71
2023/03/13 08:32:13;;;;;;;4.65;0.75;;;;;;;;;;5281287;28;20298;-71
2023/03/13 08:34:44;;;;;;;5.28;0.70;;;;;;;;;;5281161;28;20107;-72
2023/03/13 08:37:16;;;;;;;6.53;0.90;;;;;;;;;;5281674;28;20115;-71
2023/03/13 08:39:47;;;;;;;3.07;0.70;;;;;;;;;;5280501;28;20626;-71
2023/03/13 08:42:18;;;;;;;4.60;0.70;;;;;;;;;;5281634;28;20298;-73
2023/03/13 08:44:50;;;;;;;3.10;0.60;;;;;;;;;;5280818;28;20379;-73
2023/03/13 08:47:21;;;;;;;4.15;0.60;;;;;;;;;;5281463;28;20016;-73
2023/03/13 08:49:53;;;;;;;5.27;0.67;;;;;;;;;;5281185;28;20078;-72
2023/03/13 08:52:25;;;;;;;5.00;0.88;;;;;;;;;;5280256;28;20283;-69
2023/03/13 08:54:56;;;;;;;4.38;0.50;;;;;;;;;;5281375;28;20070;-73
2023/03/13 08:57:27;;;;;;;5.15;0.60;;;;;;;;;;5281261;28;20043;-71
2023/03/13 08:59:59;;;;;;;2.55;0.43;;;;;;;;;;5280545;28;20055;-70
2023/03/13 09:02:30;;;;;;;2.67;0.60;;;;;;;;;;5283888;28;20424;-72
2023/03/13 09:05:01;;;;;;;4.17;0.67;;;;;;;;;;5285437;28;20283;-71
2023/03/13 09:07:32;;;;;;;2.23;0.50;;;;;;;;;;5284170;28;20259;-71
2023/03/13 09:10:03;;;;;;;1.50;0.40;;;;;;;;;;5285464;28;20275;-71
2023/03/13 09:12:35;;;;;;;4.07;0.52;;;;;;;;;;5284923;28;20488;-70
2023/03/13 09:15:06;;;;;;;2.30;0.50;;;;;;;;;;5284531;28;20017;-71
2023/03/13 09:17:38;;;;;;;2.20;0.52;;;;;;;;;;5284879;28;20294;-71
2023/03/13 09:20:09;;;;;;;3.45;0.70;;;;;;;;;;5284530;28;20047;-70
2023/03/13 09:22:40;;;;;;;3.10;0.50;;;;;;;;;;5284559;28;20099;-71
2023/03/13 09:25:12;;;;;;;3.07;0.50;;;;;;;;;;5285034;28;20025;-71
2023/03/13 09:27:43;;;;;;;4.20;0.60;;;;;;;;;;5283213;28;20822;-71
2023/03/13 09:30:15;;;;;;;3.20;0.60;;;;;;;;;;5285143;28;20019;-71
2023/03/13 09:32:46;;;;;;;2.50;0.40;;;;;;;;;;5284425;28;20340;-71
2023/03/13 09:35:17;;;;;;;3.10;0.77;;;;;;;;;;5284137;28;20096;-71
2023/03/13 09:37:48;;;;;;;2.17;0.50;;;;;;;;;;5284325;28;20761;-71
2023/03/13 09:40:21;;;;;;;3.57;0.50;;;;;;;;;;5284445;28;20613;-72
2023/03/13 09:42:53;;;;;;;1.52;0.40;;;;;;;;;;5283808;28;20667;-71
2023/03/13 09:45:35;;;;;;;1.40;0.40;;;;;;;;;;5284318;28;20012;-71
2023/03/13 09:48:19;;;;;;;1.88;0.40;;;;;;;;;;5285123;28;20447;-72
2023/03/13 09:50:55;;;;;;;1.85;0.30;;;;;;;;;;5284003;28;20109;-71
2023/03/13 09:53:33;;;;;;;2.03;0.40;;;;;;;;;;5284314;28;20043;-72
2023/03/13 09:56:10;;;;;;;1.38;0.30;;;;;;;;;;5283620;28;20474;-72
2023/03/13 09:58:47;;;;;;;1.25;0.30;;;;;;;;;;5283858;28;20016;-72
2023/03/13 10:01:21;;;;;;;1.88;0.32;;;;;;;;;;5284616;28;20067;-71
2023/03/13 10:04:11;;;;;;;1.65;0.40;;;;;;;;;;5283383;28;20070;-72
2023/03/13 10:06:42;;;;;;;1.92;0.50;;;;;;;;;;5283734;28;20048;-72
2023/03/13 10:09:23;;;;;;;2.65;0.40;;;;;;;;;;5283691;28;20483;-73
2023/03/13 10:12:01;;;;;;;1.80;0.30;;;;;;;;;;5284277;28;20051;-72
2023/03/13 10:14:32;;;;;;;1.87;0.37;;;;;;;;;;5283000;28;20102;-72
2023/03/13 10:17:03;;;;;;;3.22;0.40;;;;;;;;;;5283657;28;20262;-71
2023/03/13 10:19:36;;;;;;;2.17;0.47;;;;;;;;;;5283379;28;20044;-70
2023/03/13 10:22:13;;;;;;;1.85;0.65;;;;;;;;;;5279970;28;20066;-70
2023/03/13 10:24:57;;;;;;;1.10;0.30;;;;;;;;;;5282598;28;20017;-71
2023/03/13 10:27:28;;;;;;;1.58;0.30;;;;;;;;;;5283487;28;20475;-72
2023/03/13 10:29:59;;;;;;;1.53;0.40;;;;;;;;;;5283816;28;20012;-72
2023/03/13 10:32:30;;;;;;;1.23;0.30;;;;;;;;;;5282048;28;20381;-69
2023/03/13 10:35:02;;;;;;;1.87;0.30;;;;;;;;;;5282055;28;20271;-71
2023/03/13 10:37:41;;;;;;;2.95;0.40;;;;;;;;;;5282590;28;20349;-72
2023/03/13 10:40:23;;;;;;;2.08;0.30;;;;;;;;;;5283761;28;20027;-72
2023/03/13 10:43:04;;;;;;;2.28;0.30;;;;;;;;;;5283438;28;20036;-72
2023/03/13 10:45:36;;;;;;;1.40;0.35;;;;;;;;;;5282395;28;20024;-71
2023/03/13 10:48:17;;;;;;;0.60;0.30;;;;;;;;;;5283435;28;20016;-70
2023/03/13 10:50:50;;;;;;;0.80;0.20;;;;;;;;;;5282868;28;20071;-70
2023/03/13 10:53:23;;;;;;;3.33;0.30;;;;;;;;;;5282151;28;20031;-70
2023/03/13 10:55:56;;;;;;;2.08;0.30;;;;;;;;;;5282571;28;20024;-71
2023/03/13 10:58:36;;;;;;;1.17;0.30;;;;;;;;;;5282294;28;20032;-70
2023/03/13 11:01:16;;;;;;;1.08;0.30;;;;;;;;;;5283020;28;20146;-71
2023/03/13 11:03:47;;;;;;;1.30;0.20;;;;;;;;;;5282135;28;20415;-72
2023/03/13 11:06:23;;;;;;;3.05;0.40;;;;;;;;;;5282320;28;20021;-72
2023/03/13 11:09:03;;;;;;;0.73;0.20;;;;;;;;;;5282928;28;20490;-72
2023/03/13 11:11:53;;;;;;;1.80;0.50;;;;;;;;;;5282413;28;20095;-72
2023/03/13 11:14:24;;;;;;;2.97;0.32;;;;;;;;;;5281651;28;20017;-72
2023/03/13 11:17:03;;;;;;;2.07;0.30;;;;;;;;;;5282955;28;20023;-72
2023/03/13 11:19:42;;;;;;;1.35;0.30;;;;;;;;;;5280997;28;20322;-73
2023/03/13 11:22:18;;;;;;;3.65;0.30;;;;;;;;;;5281912;28;20051;-71
2023/03/13 11:25:01;;;;;;;2.38;0.30;;;;;;;;;;5282692;28;20073;-72
2023/03/13 11:27:41;;;;;;;1.27;0.30;;;;;;;;;;5281464;28;20486;-71
2023/03/13 11:30:21;;;;;;;1.10;0.28;;;;;;;;;;5282715;28;20408;-71
2023/03/13 11:32:54;;;;;;;1.17;0.28;;;;;;;;;;5282071;28;20099;-71
2023/03/13 11:35:32;;;;;;;2.25;0.28;;;;;;;;;;5281379;28;20031;-72
2023/03/13 11:38:07;;;;;;;2.30;0.30;;;;;;;;;;5282682;28;20055;-72
2023/03/13 11:40:51;;;;;;;1.70;0.30;;;;;;;;;;5281614;28;20048;-72
2023/03/13 11:43:29;;;;;;;1.88;0.30;;;;;;;;;;5282175;28;20024;-71
2023/03/13 11:46:18;;;;;;;4.32;0.38;;;;;;;;;;5282336;28;20021;-72
2023/03/13 11:48:58;;;;;;;2.42;0.40;;;;;;;;;;5280978;28;20024;-73
2023/03/13 11:51:48;;;;;;;1.67;0.30;;;;;;;;;;5281644;28;20475;-71
2023/03/13 11:54:22;;;;;;;2.28;0.22;;;;;;;;;;5282180;28;20036;-72
2023/03/13 11:56:56;;;;;;;3.08;0.20;;;;;;;;;;5281296;28;20551;-71
2023/03/13 11:59:30;;;;;;;4.70;0.30;;;;;;;;;;5281632;28;20111;-72
2023/03/13 12:02:04;;;;;;;4.50;0.52;;;;;;;;;;5281391;28;20090;-72
2023/03/13 12:04:39;;;;;;;2.92;0.30;;;;;;;;;;5281886;28;20414;-72
2023/03/13 12:07:29;;;;;;;3.80;0.30;;;;;;;;;;5282217;28;20360;-72
2023/03/13 12:10:04;;;;;;;1.45;0.30;;;;;;;;;;5281240;28;20023;-72
2023/03/13 12:12:43;;;;;;;7.22;1.02;;;;;;;;;;5281370;28;20051;-72
2023/03/13 12:15:20;;;;;;;3.22;0.30;;;;;;;;;;5282301;28;20033;-72
2023/03/13 12:18:04;;;;;;;2.33;0.30;;;;;;;;;;5281069;28;20494;-72
2023/03/13 12:20:41;;;;;;;3.05;0.22;;;;;;;;;;5281217;28;20122;-72
2023/03/13 12:23:17;;;;;;;2.33;0.40;;;;;;;;;;5281440;28;20043;-72
2023/03/13 12:25:54;;;;;;;3.00;0.50;;;;;;;;;;5281537;28;20413;-72
2023/03/13 12:28:31;;;;;;;2.08;0.30;;;;;;;;;;5281166;28;20032;-72
2023/03/13 12:31:20;;;;;;;2.55;0.30;;;;;;;;;;5280966;28;20459;-71
2023/03/13 12:33:54;;;;;;;1.67;0.30;;;;;;;;;;5281566;28;20030;-71
2023/03/13 12:36:32;;;;;;;8.00;0.57;;;;;;;;;;5282664;28;20021;-72
2023/03/13 12:39:03;;;;;;;3.13;0.30;;;;;;;;;;5285424;28;20050;-72
2023/03/13 12:41:40;;;;;;;2.17;0.20;;;;;;;;;;5285442;28;20122;-72
2023/03/13 12:44:16;;;;;;;2.72;0.28;;;;;;;;;;5285424;28;20352;-72
2023/03/13 12:47:06;;;;;;;1.90;0.38;;;;;;;;;;5285339;28;20013;-71
2023/03/13 12:49:42;;;;;;;5.32;0.30;;;;;;;;;;5285108;28;20100;-71
2023/03/13 12:52:22;;;;;;;2.15;0.30;;;;;;;;;;5285061;28;20028;-72
2023/03/13 12:54:59;;;;;;;5.63;0.30;;;;;;;;;;5285785;28;20529;-72
2023/03/13 12:57:49;;;;;;;4.38;0.30;;;;;;;;;;5285233;28;20021;-72
2023/03/13 13:00:22;;;;;;;3.88;0.50;;;;;;;;;;5284970;28;20020;-72
2023/03/13 13:03:11;;;;;;;3.30;0.30;;;;;;;;;;5285269;28;20042;-72
2023/03/13 13:06:09;;;;;;;4.15;0.20;;;;;;;;;;5284210;28;20016;-72
2023/03/13 13:08:47;;;;;;;1.65;0.30;;;;;;;;;;5282522;28;20028;-73
2023/03/13 13:11:36;;;;;;;2.33;0.20;;;;;;;;;;5285562;28;20378;-72
2023/03/13 13:14:10;;;;;;;4.10;0.30;;;;;;;;;;5284584;28;20088;-72
2023/03/13 13:16:42;;;;;;;3.55;0.30;;;;;;;;;;5284783;28;20109;-70
2023/03/13 13:19:19;;;;;;;3.35;0.40;;;;;;;;;;5284299;28;20020;-72
2023/03/13 13:22:09;;;;;;;2.20;0.28;;;;;;;;;;5284954;28;20024;-72
2023/03/13 13:24:48;;;;;;;5.47;0.40;;;;;;;;;;5284645;28;20028;-71
2023/03/13 13:27:31;;;;;;;5.90;0.38;;;;;;;;;;5284273;28;20021;-72
2023/03/13 13:30:22;;;;;;;2.28;0.20;;;;;;;;;;5285184;28;20035;-72
2023/03/13 13:33:13;;;;;;;5.97;0.63;;;;;;;;;;5284672;28;20033;-72
2023/03/13 13:35:46;;;;;;;4.55;0.40;;;;;;;;;;5284351;28;20016;-72
2023/03/13 13:38:17;;;;;;;1.80;0.30;;;;;;;;;;5285467;28;20352;-72
2023/03/13 13:41:07;;;;;;;3.95;0.20;;;;;;;;;;5283794;28;20100;-72
2023/03/13 13:43:42;;;;;;;5.72;0.40;;;;;;;;;;5284374;28;20283;-72
2023/03/13 13:46:28;;;;;;;1.10;0.20;;;;;;;;;;5284671;28;20029;-72
2023/03/13 13:49:05;;;;;;;1.95;0.38;;;;;;;;;;5282957;28;20026;-72
2023/03/13 13:51:37;;;;;;;2.95;0.22;;;;;;;;;;5283985;28;20056;-72
2023/03/13 13:54:11;;;;;;;1.95;0.30;;;;;;;;;;5284618;28;20032;-72
2023/03/13 13:56:45;;;;;;;2.40;0.30;;;;;;;;;;5283074;28;20417;-72
2023/03/13 13:59:19;;;;;;;1.15;0.30;;;;;;;;;;5284818;28;20024;-72
2023/03/13 14:02:02;;;;;;;1.10;0.20;;;;;;;;;;5283128;28;20028;-71
2023/03/13 14:04:42;;;;;;;1.83;0.20;;;;;;;;;;5283690;28;20025;-71
2023/03/13 14:07:19;;;;;;;2.80;0.30;;;;;;;;;;5284298;28;20107;-71
2023/03/13 14:10:03;;;;;;;3.13;0.30;;;;;;;;;;5283250;28;20031;-72
2023/03/13 14:12:37;;;;;;;4.18;0.30;;;;;;;;;;5283743;28;20090;-72
2023/03/13 14:15:15;;;;;;;1.92;0.35;;;;;;;;;;5284061;28;20017;-72
2023/03/13 14:17:47;;;;;;;1.60;0.40;;;;;;;;;;5283151;28;20028;-72
2023/03/13 14:20:18;;;;;;;1.50;0.25;;;;;;;;;;5284268;28;20532;-72
2023/03/13 14:22:52;;;;;;;4.20;0.35;;;;;;;;;;5283158;28;20020;-72
2023/03/13 14:25:24;;;;;;;3.05;0.30;;;;;;;;;;5283558;28;20291;-72
2023/03/13 14:27:55;;;;;;;2.38;0.40;;;;;;;;;;5284009;28;20150;-72
2023/03/13 14:30:26;;;;;;;1.80;0.30;;;;;;;;;;5282775;28;20016;-72
2023/03/13 14:32:57;;;;;;;3.42;0.40;;;;;;;;;;5283644;28;20070;-72
2023/03/13 14:35:28;;;;;;;3.30;0.35;;;;;;;;;;5283205;28;20023;-71
2023/03/13 14:38:00;;;;;;;4.73;0.40;;;;;;;;;;5282819;28;20025;-71
2023/03/13 14:40:32;;;;;;;3.58;0.50;;;;;;;;;;5283216;28;20277;-72
2023/03/13 14:43:16;;;;;;;4.28;0.45;;;;;;;;;;5283587;28;20017;-71
2023/03/13 14:45:48;;;;;;;4.95;0.30;;;;;;;;;;5282196;28;20021;-71
2023/03/13 14:48:45;;;;;;;2.92;0.30;;;;;;;;;;5283459;28;20023;-72
2023/03/13 14:51:20;;;;;;;7.97;0.45;;;;;;;;;;5280392;28;20099;-72
2023/03/13 14:53:59;;;;;;;5.72;0.40;;;;;;;;;;5282959;28;20035;-72
2023/03/13 14:56:30;;;;;;;;;;;;;;;;;;5283160;28;20023;-72
2023/03/13 14:59:18;;;;;;;7.53;0.50;;;;;;;;;;5282133;28;19904;-71
2023/03/13 15:01:59;;;;;;;7.57;0.52;;;;;;;;;;5282787;28;20505;-72
2023/03/13 15:04:49;;;;;;;4.38;0.40;;;;;;;;;;5282706;28;20020;-72
2023/03/13 15:07:21;;;;;;;3.75;0.40;;;;;;;;;;5282518;28;20016;-72
2023/03/13 15:09:53;;;;;;;3.92;0.30;;;;;;;;;;5282451;28;20433;-71
2023/03/13 15:12:24;;;;;;;4.05;0.40;;;;;;;;;;5281842;28;20490;-71
2023/03/13 15:14:56;;;;;;;3.67;0.60;;;;;;;;;;5283039;28;20095;-71
2023/03/13 15:17:28;;;;;;;2.90;0.40;;;;;;;;;;5282172;28;20062;-71
2023/03/13 15:19:59;;;;;;;3.22;0.43;;;;;;;;;;5282027;28;20039;-72
2023/03/13 15:22:32;;;;;;;4.53;0.30;;;;;;;;;;5282408;28;20017;-72